Time;durP1;ratioP1;P1;durP2;ratioP2;P2;SDS_P1;SDS_P2;PMS_P1;PMS_P2;Temp;Humidity;BMP_temperature;BMP_pressure;BME280_temperature;BME280_humidity;BME280_pressure;Samples;Min_cycle;Max_cycle;Signal;HPM_P1;HPM_P2
2022/09/26 00:01:17;;;;;;;;;2.00;2.00;;;;;13.10;77.02;100371.22;5038778;28;45514;-67
2022/09/26 00:03:46;;;;;;;;;1.67;1.67;;;;;13.11;77.24;100370.34;5020766;28;45372;-67
2022/09/26 00:06:12;;;;;;;;;3.00;2.00;;;;;13.06;77.57;100375.53;5021213;28;45763;-71
2022/09/26 00:08:38;;;;;;;;;3.00;3.00;;;;;12.92;77.76;100370.06;5038814;28;45490;-67
2022/09/26 00:11:06;;;;;;;;;3.50;3.50;;;;;12.84;77.02;100355.94;5038582;28;45620;-68
2022/09/26 00:13:34;;;;;;;;;3.00;2.67;;;;;12.86;77.90;100369.94;5020591;28;45514;-73
2022/09/26 00:16:00;;;;;;;;;4.00;4.00;;;;;12.74;77.27;100352.25;5038955;28;45355;-73
2022/09/26 00:18:26;;;;;;;;;4.25;4.25;;;;;12.73;77.69;100352.22;5038750;28;45451;-72
2022/09/26 00:20:52;;;;;;;;;2.00;2.00;;;;;12.71;77.92;100357.47;5038357;28;46169;-73
2022/09/26 00:23:17;;;;;;;;;1.00;1.00;;;;;12.69;78.01;100355.63;5038549;28;45677;-73
2022/09/26 00:25:50;;;;;;;;;2.00;2.00;;;;;12.52;78.39;100332.63;5038811;28;45460;-73
2022/09/26 00:28:17;;;;;;;;;2.00;2.00;;;;;12.68;78.34;100359.13;5038892;28;46011;-67
2022/09/26 00:30:43;;;;;;;;;4.00;4.00;;;;;12.66;78.50;100347.75;5047241;28;46182;-67
2022/09/26 00:33:12;;;;;;;;;4.00;4.00;;;;;12.59;77.97;100345.84;5058425;28;45504;-67
2022/09/26 00:35:38;;;;;;;;;1.00;1.00;;;;;12.57;78.06;100344.94;5058662;28;45294;-69
2022/09/26 00:38:04;;;;;;;;;3.00;2.25;;;;;12.59;78.14;100356.34;5058669;28;45290;-67
2022/09/26 00:40:30;;;;;;;;;2.00;2.00;;;;;12.43;78.38;100336.81;5058417;28;46628;-66
2022/09/26 00:42:57;;;;;;;;;4.00;3.00;;;;;12.41;78.46;100333.28;5058209;28;45404;-66
2022/09/26 00:45:28;;;;;;;;;3.50;3.00;;;;;12.41;78.33;100339.41;5058282;28;45343;-66
2022/09/26 00:48:00;;;;;;;;;3.00;3.00;;;;;12.38;78.79;100341.09;5058108;28;45540;-66
2022/09/26 00:50:36;;;;;;;;;3.33;2.00;;;;;12.35;78.63;100344.53;5058206;28;46112;-67
2022/09/26 00:53:06;;;;;;;;;3.25;3.00;;;;;12.26;77.96;100337.38;5058094;28;45319;-67
2022/09/26 00:55:37;;;;;;;;;2.00;2.00;;;;;12.22;77.88;100334.69;5058241;28;45448;-67
2022/09/26 00:58:09;;;;;;;;;2.00;2.00;;;;;12.20;78.02;100342.50;5058194;28;45347;-67
2022/09/26 01:00:35;;;;;;;;;2.00;2.00;;;;;12.32;78.56;100368.94;5057930;28;45512;-67
2022/09/26 01:03:01;;;;;;;;;1.00;1.00;;;;;12.33;78.57;100362.84;5040089;28;45364;-67
2022/09/26 01:05:27;;;;;;;;;2.00;2.00;;;;;12.25;78.51;100348.69;5058322;28;45362;-69
2022/09/26 01:07:55;;;;;;;;;2.33;2.33;;;;;12.33;78.07;100347.16;5058382;28;45465;-73
2022/09/26 01:10:23;;;;;;;;;1.75;1.75;;;;;12.42;77.69;100369.13;5057454;28;45321;-66
2022/09/26 01:12:49;;;;;;;;;2.00;1.00;;;;;12.43;77.80;100369.13;5057812;28;45333;-66
2022/09/26 01:15:15;;;;;;;;;1.67;1.67;;;;;12.41;77.78;100360.38;5058246;28;45472;-67
2022/09/26 01:17:43;;;;;;;;;3.00;2.00;;;;;12.38;77.61;100344.59;5057965;28;45421;-67
2022/09/26 01:20:27;;;;;;;;;2.00;2.00;;;;;12.58;77.62;100362.44;5057730;28;45418;-67
2022/09/26 01:23:11;;;;;;;;;2.00;1.75;;;;;12.63;77.51;100363.41;5057934;28;45366;-66
2022/09/26 01:26:18;;;;;;;;;2.00;2.00;;;;;12.67;77.37;100359.97;5039763;28;45495;-73
2022/09/26 01:29:21;;;;;;;;;2.00;1.00;;;;;12.70;77.38;100357.44;5013309;28;45643;-67
2022/09/26 01:32:51;;;;;;;;;2.50;2.50;;;;;12.72;77.25;100353.09;5057750;28;46165;-71
2022/09/26 01:35:33;;;;;;;;;2.00;1.33;;;;;12.69;76.80;100337.31;5027115;28;45616;-72
2022/09/26 01:38:13;;;;;;;;;1.00;1.00;;;;;12.77;76.84;100354.03;5057723;28;45302;-73
2022/09/26 01:40:48;;;;;;;;;1.00;1.00;;;;;12.78;76.51;100345.34;5057833;28;45434;-67
2022/09/26 01:43:27;;;;;;;;;1.00;1.00;;;;;12.78;76.59;100334.84;5057642;28;45731;-66
2022/09/26 01:46:01;;;;;;;;;3.00;1.67;;;;;12.77;76.58;100343.56;5057361;28;45508;-66
2022/09/26 01:48:36;;;;;;;;;2.25;2.00;;;;;12.64;77.02;100318.00;5057563;28;45381;-67
2022/09/26 01:51:15;;;;;;;;;1.67;1.00;;;;;12.65;77.24;100319.75;5039649;28;45439;-66
2022/09/26 01:53:56;;;;;;;;;2.00;1.00;;;;;12.44;77.44;100307.16;5039085;28;47220;-66
2022/09/26 01:56:29;;;;;;;;;1.00;1.00;;;;;12.35;78.41;100310.47;5057296;28;45406;-68
2022/09/26 01:59:04;;;;;;;;;1.00;1.00;;;;;12.36;78.53;100325.34;5057433;28;45338;-68
2022/09/26 02:01:37;;;;;;;;;2.00;1.00;;;;;12.23;78.48;100299.78;5039390;28;45542;-67
2022/09/26 02:04:10;;;;;;;;;4.00;2.00;;;;;12.15;78.95;100304.84;5056881;28;45350;-71
2022/09/26 02:06:51;;;;;;;;;1.00;1.00;;;;;12.08;78.32;100293.38;5057123;28;45506;-71
2022/09/26 02:09:24;;;;;;;;;1.50;1.50;;;;;12.18;78.29;100317.16;5057403;28;46015;-67
2022/09/26 02:11:54;;;;;;;;;3.33;2.00;;;;;12.14;78.36;100311.84;5057601;28;45418;-67
2022/09/26 02:14:26;;;;;;;;;1.00;1.00;;;;;12.19;78.22;100319.78;5057353;28;46238;-66
2022/09/26 02:16:56;;;;;;;;;2.00;2.00;;;;;12.17;78.66;100315.38;5057008;28;45528;-66
2022/09/26 02:19:24;;;;;;;;;2.00;2.00;;;;;12.03;78.22;100307.22;5038920;28;45281;-66
2022/09/26 02:21:50;;;;;;;;;2.00;2.00;;;;;12.01;78.49;100301.97;5059815;28;45468;-66
2022/09/26 02:24:16;;;;;;;;;2.00;1.00;;;;;12.01;78.40;100307.19;5060607;28;45495;-66
2022/09/26 02:26:42;;;;;;;;;1.00;1.00;;;;;11.86;78.28;100288.56;5060337;28;45311;-73
2022/09/26 02:29:09;;;;;;;;;2.00;1.33;;;;;11.91;78.53;100306.13;5060782;28;45534;-68
2022/09/26 02:31:40;;;;;;;;;2.00;0.67;;;;;11.83;78.75;100296.31;5060816;28;45234;-69
2022/09/26 02:34:06;;;;;;;;;2.00;2.00;;;;;11.83;79.15;100293.72;5060144;28;46328;-69
2022/09/26 02:36:33;;;;;;;;;1.00;1.00;;;;;11.83;78.75;100304.19;5060331;28;45460;-73
2022/09/26 02:39:00;;;;;;;;;1.33;1.00;;;;;11.77;78.47;100301.44;5060502;28;45476;-69
2022/09/26 02:42:03;;;;;;;;;2.00;2.00;;;;;11.83;78.62;100323.38;5060610;28;45420;-67
2022/09/26 02:44:59;;;;;;;;;1.00;1.00;;;;;11.74;79.26;100323.19;5028504;28;46154;-66
2022/09/26 02:47:56;;;;;;;;;3.00;2.75;;;;;11.57;78.56;100309.72;5060268;28;45393;-66
2022/09/26 02:50:33;;;;;;;;;1.00;1.00;;;;;11.60;78.62;100320.28;5060721;28;45543;-67
2022/09/26 02:53:06;;;;;;;;;2.00;2.00;;;;;11.32;78.92;100274.28;5060490;28;45450;-66
2022/09/26 02:55:55;;;;;;;;;2.00;2.00;;;;;11.53;78.88;100316.63;5060087;28;45505;-66
2022/09/26 02:58:24;;;;;;;;;2.00;2.00;;;;;11.57;78.99;100316.69;5060516;28;45377;-67
2022/09/26 03:01:17;;;;;;;;;3.00;2.00;;;;;11.55;79.05;100325.38;5060582;28;45461;-67
2022/09/26 03:03:52;;;;;;;;;1.50;1.50;;;;;11.55;79.21;100325.38;5060111;28;45948;-73
2022/09/26 03:06:25;;;;;;;;;2.00;2.00;;;;;11.45;78.87;100304.22;5059630;28;45956;-67
2022/09/26 03:08:54;;;;;;;;;1.33;1.33;;;;;11.46;78.29;100305.97;5060179;28;45569;-67
2022/09/26 03:11:24;;;;;;;;;2.00;2.00;;;;;11.43;78.57;100303.31;5060284;28;45303;-66
2022/09/26 03:13:53;;;;;;;;;2.00;2.00;;;;;11.51;78.50;100318.31;5060492;28;45389;-67
2022/09/26 03:16:22;;;;;;;;;2.00;2.00;;;;;11.44;78.48;100302.44;5060032;28;45382;-68
2022/09/26 03:18:59;;;;;;;;;2.00;2.00;;;;;11.53;78.07;100314.00;5059746;28;45285;-67
2022/09/26 03:21:26;;;;;;;;;1.00;1.00;;;;;11.55;78.19;100300.97;5041536;28;45313;-66
2022/09/26 03:23:52;;;;;;;;;2.25;2.00;;;;;11.54;78.05;100296.59;5060134;28;45457;-66
2022/09/26 03:26:23;;;;;;;;;2.00;1.00;;;;;11.59;78.39;100304.53;5059546;28;45350;-72
2022/09/26 03:28:52;;;;;;;;;1.00;1.00;;;;;11.64;78.48;100305.50;5059522;28;45394;-73
2022/09/26 03:31:23;;;;;;;;;1.67;1.67;;;;;11.66;78.78;100311.69;5059403;28;45488;-73
2022/09/26 03:33:50;;;;;;;;;2.00;2.00;;;;;11.65;79.14;100292.47;5059603;28;45402;-73
2022/09/26 03:36:16;;;;;;;;;1.00;1.00;;;;;11.73;78.62;100301.34;5059484;28;46291;-72
2022/09/26 03:38:41;;;;;;;;;1.33;1.00;;;;;11.66;77.93;100282.91;5059306;28;45435;-73
2022/09/26 03:41:08;;;;;;;;;2.00;2.00;;;;;11.72;77.51;100289.13;5041362;28;45304;-67
2022/09/26 03:43:34;;;;;;;;;1.00;1.00;;;;;11.63;78.17;100273.22;5041444;28;45641;-73
2022/09/26 03:46:04;;;;;;;;;1.00;1.00;;;;;11.80;78.32;100296.25;5059196;28;46029;-67
2022/09/26 03:48:31;;;;;;;;;1.33;1.00;;;;;11.84;78.30;100292.88;5059288;28;45516;-66
2022/09/26 03:51:05;;;;;;;;;2.00;2.00;;;;;11.81;78.04;100282.31;5059450;28;45393;-67
2022/09/26 03:53:32;;;;;;;;;1.00;1.00;;;;;11.84;78.11;100287.63;5059622;28;45344;-67
2022/09/26 03:56:07;;;;;;;;;2.00;2.00;;;;;11.85;78.31;100289.38;5059017;28;46121;-67
2022/09/26 03:58:33;;;;;;;;;3.00;2.00;;;;;11.75;78.25;100277.84;5059124;28;45235;-67
2022/09/26 04:01:06;;;;;;;;;1.67;1.67;;;;;11.80;78.25;100270.97;5059104;28;45608;-66
2022/09/26 04:03:37;;;;;;;;;1.00;1.00;;;;;11.79;78.28;100260.47;5059231;28;45339;-66
2022/09/26 04:06:03;;;;;;;;;3.00;1.00;;;;;11.87;78.27;100280.69;5058855;28;46341;-67
2022/09/26 04:08:29;;;;;;;;;1.00;1.00;;;;;11.86;78.29;100278.94;5058983;28;45409;-67
2022/09/26 04:11:12;;;;;;;;;4.00;2.00;;;;;11.73;78.47;100264.72;5059050;28;45334;-66
2022/09/26 04:13:38;;;;;;;;;1.00;1.00;;;;;11.69;78.58;100264.63;5059400;28;45256;-67
2022/09/26 04:16:06;;;;;;;;;2.00;2.00;;;;;11.69;78.75;100267.25;5058547;28;45478;-67
2022/09/26 04:18:33;;;;;;;;;2.33;2.00;;;;;11.73;78.58;100274.31;5058585;28;45341;-72
2022/09/26 04:21:05;;;;;;;;;1.33;1.33;;;;;11.46;79.49;100246.72;5058914;28;46123;-66
2022/09/26 04:23:33;;;;;;;;;1.50;1.50;;;;;11.45;79.29;100262.38;5058825;28;45442;-71
2022/09/26 04:26:04;;;;;;;;;3.00;2.00;;;;;11.46;79.14;100269.34;5058445;28;45293;-68
2022/09/26 04:28:29;;;;;;;;;3.50;3.50;;;;;11.56;79.21;100287.06;5058494;28;45342;-70
2022/09/26 04:30:59;;;;;;;;;3.00;2.00;;;;;11.54;80.32;100300.09;5058946;28;45540;-73
2022/09/26 04:33:25;;;;;;;;;1.00;1.00;;;;;11.57;79.94;100291.41;5059150;28;45430;-73
2022/09/26 04:35:51;;;;;;;;;2.25;2.25;;;;;11.58;79.88;100289.69;5058251;28;45924;-73
2022/09/26 04:38:17;;;;;;;;;3.00;3.00;;;;;11.48;79.99;100279.03;5058401;28;45493;-67
2022/09/26 04:40:43;;;;;;;;;1.33;1.33;;;;;11.51;80.33;100283.44;5040503;28;45427;-67
2022/09/26 04:43:10;;;;;;;;;3.00;3.00;;;;;11.57;80.37;100293.16;5040100;28;45598;-69
2022/09/26 04:45:40;;;;;;;;;3.75;3.00;;;;;11.42;80.28;100265.81;5057838;28;46178;-69
2022/09/26 04:48:06;;;;;;;;;2.00;2.00;;;;;11.44;80.14;100260.59;5040275;28;45517;-67
2022/09/26 04:50:32;;;;;;;;;2.50;2.50;;;;;11.54;80.00;100281.78;5058371;28;45485;-67
2022/09/26 04:52:59;;;;;;;;;2.25;2.25;;;;;11.58;80.27;100284.44;5058838;28;45343;-67
2022/09/26 04:55:25;;;;;;;;;2.50;2.50;;;;;11.47;79.84;100271.13;5058602;28;46510;-68
2022/09/26 04:57:51;;;;;;;;;2.00;2.00;;;;;11.40;80.15;100259.69;5058127;28;45398;-67
2022/09/26 05:00:17;;;;;;;;;2.00;2.00;;;;;11.35;79.99;100256.94;5058352;28;45496;-71
2022/09/26 05:02:46;;;;;;;;;2.00;2.00;;;;;11.18;79.78;100226.03;5058614;28;45370;-74
2022/09/26 05:05:12;;;;;;;;;2.75;2.25;;;;;11.46;79.66;100285.06;5055519;28;45460;-73
2022/09/26 05:07:39;;;;;;;;;2.50;2.00;;;;;11.44;80.01;100282.44;5046637;28;45454;-68
2022/09/26 05:10:06;;;;;;;;;2.00;2.00;;;;;11.32;80.26;100269.97;5057416;28;45330;-69
2022/09/26 05:12:31;;;;;;;;;2.00;2.00;;;;;11.40;80.18;100271.84;5070061;28;45619;-68
2022/09/26 05:14:57;;;;;;;;;2.00;2.00;;;;;11.34;80.00;100255.19;5056899;28;45512;-71
2022/09/26 05:17:23;;;;;;;;;2.25;2.00;;;;;11.39;80.63;100270.97;5057254;28;45325;-68
2022/09/26 05:19:49;;;;;;;;;2.25;2.25;;;;;11.36;80.27;100255.22;5057021;28;45564;-69
2022/09/26 05:22:14;;;;;;;;;2.50;2.50;;;;;11.33;80.59;100250.78;5057199;28;45523;-68
2022/09/26 05:27:24;;;;;;;;;3.75;3.00;;;;;11.43;80.48;100262.34;5056875;28;45433;-68
2022/09/26 05:29:55;;;;;;;;;3.50;3.50;;;;;11.41;80.07;100250.97;5056820;28;45363;-68
2022/09/26 05:32:21;;;;;;;;;7.25;6.00;;;;;11.38;80.03;100239.53;5057012;28;45470;-69
2022/09/26 05:34:47;;;;;;;;;2.00;2.00;;;;;11.51;79.43;100258.16;5038236;28;47924;-68
2022/09/26 05:37:13;;;;;;;;;2.25;2.25;;;;;11.48;79.23;100251.97;5056195;28;45484;-67
2022/09/26 05:42:23;;;;;;;;;2.33;2.33;;;;;11.40;79.82;100259.69;5056711;28;45519;-72
2022/09/26 05:44:49;;;;;;;;;2.75;2.25;;;;;11.33;79.85;100253.41;5052727;28;46235;-72
2022/09/26 05:47:15;;;;;;;;;3.00;2.00;;;;;11.19;79.70;100220.84;5051486;28;45449;-68
2022/09/26 05:49:41;;;;;;;;;2.50;2.50;;;;;11.33;79.93;100256.03;5054414;28;45590;-70
2022/09/26 05:52:06;;;;;;;;;3.25;3.25;;;;;11.25;79.93;100243.63;5055351;28;45469;-72
2022/09/26 05:54:32;;;;;;;;;3.00;3.00;;;;;11.20;79.86;100238.31;5040887;28;45624;-67
2022/09/26 05:56:57;;;;;;;;;3.00;3.00;;;;;11.28;80.06;100262.00;5054952;28;45407;-70
2022/09/26 05:59:23;;;;;;;;;21.50;20.25;;;;;11.14;80.08;100246.00;5056406;28;45401;-71
2022/09/26 06:01:49;;;;;;;;;4.00;4.00;;;;;11.24;80.46;100258.44;5056550;28;45387;-68
2022/09/26 06:04:14;;;;;;;;;4.00;3.25;;;;;11.04;80.40;100220.50;5037102;28;45530;-70
2022/09/26 06:06:41;;;;;;;;;6.25;6.25;;;;;11.22;80.07;100248.78;5055311;28;45471;-69
2022/09/26 06:09:06;;;;;;;;;6.00;6.00;;;;;11.08;80.29;100211.88;5055596;28;45506;-72
2022/09/26 06:11:32;;;;;;;;;4.00;4.00;;;;;11.24;80.12;100232.31;5025625;27;45326;-72
2022/09/26 06:14:01;;;;;;;;;5.25;5.25;;;;;11.19;79.62;100226.06;5035788;28;45890;-71
2022/09/26 06:16:27;;;;;;;;;4.50;4.00;;;;;11.07;79.28;100207.50;5035929;28;45446;-71
2022/09/26 06:18:54;;;;;;;;;4.00;4.00;;;;;11.28;79.59;100254.16;5035887;28;45395;-68
2022/09/26 06:21:20;;;;;;;;;5.75;4.25;;;;;11.34;79.32;100252.56;5035908;28;45541;-67
2022/09/26 06:23:46;;;;;;;;;5.25;5.25;;;;;11.29;79.50;100225.41;5035744;28;46146;-66
2022/09/26 06:26:23;;;;;;;;;9.00;7.50;;;;;11.45;79.25;100247.56;5035339;28;45553;-69
2022/09/26 06:28:58;;;;;;;;;4.75;4.00;;;;;11.57;78.65;100252.16;5036624;28;45526;-67
2022/09/26 06:31:24;;;;;;;;;4.75;4.75;;;;;11.50;78.52;100221.53;5050963;28;45803;-67
2022/09/26 06:33:54;;;;;;;;;6.00;6.00;;;;;11.69;78.72;100225.38;5056425;28;45502;-73
2022/09/26 06:36:21;;;;;;;;;9.50;9.50;;;;;11.90;77.98;100244.16;5056679;28;45501;-73
2022/09/26 06:38:47;;;;;;;;;11.00;9.75;;;;;11.99;77.82;100242.59;5056548;28;45265;-72
2022/09/26 06:41:16;;;;;;;;;12.25;10.75;;;;;12.10;77.84;100241.94;5056731;28;45554;-74
2022/09/26 06:43:46;;;;;;;;;6.00;6.00;;;;;12.30;77.20;100244.03;5041843;28;46262;-71
2022/09/26 06:46:13;;;;;;;;;7.00;6.00;;;;;12.42;76.79;100235.53;5017926;28;45529;-71
2022/09/26 06:48:39;;;;;;;;;6.75;6.00;;;;;12.64;76.16;100253.38;5036232;28;45488;-68
2022/09/26 06:51:05;;;;;;;;;8.25;8.00;;;;;12.87;76.10;100266.88;5027100;28;45563;-67
2022/09/26 06:53:33;;;;;;;;;5.00;5.00;;;;;13.01;75.08;100268.78;5026855;28;46560;-70
2022/09/26 06:55:59;;;;;;;;;5.00;5.00;;;;;13.16;74.54;100270.78;5028450;28;45392;-71
2022/09/26 06:58:25;;;;;;;;;3.00;3.00;;;;;13.25;74.14;100263.03;5025945;28;45599;-70
2022/09/26 07:00:50;;;;;;;;;3.00;3.00;;;;;13.68;73.39;100261.91;5024701;28;45521;-68
2022/09/26 07:03:16;;;;;;;;;3.00;3.00;;;;;14.67;70.70;100266.50;5028229;28;45537;-70
2022/09/26 07:05:44;;;;;;;;;5.00;4.00;;;;;15.17;67.26;100256.38;5025220;28;45518;-72
2022/09/26 07:08:09;;;;;;;;;3.67;2.67;;;;;15.90;64.99;100256.78;5026600;28;45488;-68
2022/09/26 07:10:36;;;;;;;;;4.67;3.67;;;;;16.77;62.75;100246.38;5027437;28;45765;-67
2022/09/26 07:13:04;;;;;;;;;4.00;3.00;;;;;17.83;60.35;100260.28;5034467;28;45552;-67
2022/09/26 07:15:32;;;;;;;;;4.33;4.00;;;;;17.66;58.88;100246.22;5028763;28;45715;-69
2022/09/26 07:18:01;;;;;;;;;16.50;14.25;;;;;17.39;61.31;100265.69;5029985;28;45546;-68
2022/09/26 07:20:28;;;;;;;;;29.75;27.50;;;;;17.32;61.50;100267.47;5011758;28;45585;-71
2022/09/26 07:22:54;;;;;;;;;13.00;11.25;;;;;17.32;60.90;100266.59;5032544;28;45518;-69
2022/09/26 07:25:19;;;;;;;;;10.00;9.50;;;;;17.12;61.74;100283.34;5027889;28;45507;-67
2022/09/26 07:27:49;;;;;;;;;6.33;5.00;;;;;16.86;62.32;100284.22;5028443;28;45416;-67
2022/09/26 07:30:15;;;;;;;;;5.00;5.00;;;;;16.57;62.92;100264.81;5019732;28;45570;-67
2022/09/26 07:32:46;;;;;;;;;4.00;3.00;;;;;16.49;63.11;100268.34;5026006;28;45359;-68
2022/09/26 07:35:13;;;;;;;;;3.00;2.67;;;;;16.60;63.32;100271.00;5027530;28;45565;-68
2022/09/26 07:37:38;;;;;;;;;3.00;2.00;;;;;16.84;62.60;100249.03;5028602;28;45750;-70
2022/09/26 07:40:04;;;;;;;;;4.00;2.00;;;;;17.14;62.13;100257.81;5026927;28;45541;-68
2022/09/26 07:42:30;;;;;;;;;2.00;1.33;;;;;17.21;61.98;100262.22;5027506;28;46217;-67
2022/09/26 07:44:56;;;;;;;;;6.67;6.00;;;;;17.51;61.73;100257.75;5027921;28;45503;-67
2022/09/26 07:50:13;;;;;;;;;3.00;3.00;;;;;17.82;61.22;100276.13;5026632;28;45716;-71
2022/09/26 07:52:43;;;;;;;;;2.00;2.00;;;;;17.68;61.95;100277.03;5025881;28;46053;-71
2022/09/26 07:55:11;;;;;;;;;3.67;2.00;;;;;17.56;62.18;100261.22;5027426;28;45508;-71
2022/09/26 07:57:36;;;;;;;;;2.00;2.00;;;;;17.40;62.42;100212.00;5027909;28;45428;-69
2022/09/26 08:00:08;;;;;;;;;3.33;3.00;;;;;17.77;61.70;100265.56;5026392;28;45882;-68
2022/09/26 08:02:34;;;;;;;;;4.00;3.33;;;;;17.69;62.53;100277.94;5027078;28;45535;-71
2022/09/26 08:05:04;;;;;;;;;6.67;4.00;;;;;17.58;63.24;100285.00;5027735;28;45604;-70
2022/09/26 08:07:31;;;;;;;;;5.67;4.33;;;;;17.33;63.36;100245.47;5026315;28;45536;-72
2022/09/26 08:09:57;;;;;;;;;4.33;3.00;;;;;17.47;63.50;100271.84;5026567;28;45743;-71
2022/09/26 08:12:25;;;;;;;;;4.67;3.67;;;;;17.48;63.77;100284.16;5026380;28;45510;-69
2022/09/26 08:14:51;;;;;;;;;8.00;7.00;;;;;17.57;63.42;100288.53;5026203;28;45439;-69
2022/09/26 08:17:19;;;;;;;;;14.33;13.67;;;;;17.79;62.87;100281.44;5026212;28;45692;-69
2022/09/26 08:19:45;;;;;;;;;17.33;16.33;;;;;17.98;62.15;100271.66;5032399;28;45510;-71
2022/09/26 08:22:11;;;;;;;;;6.00;5.33;;;;;18.23;61.44;100275.94;5032964;28;46069;-72
2022/09/26 08:24:40;;;;;;;;;4.33;4.00;;;;;18.79;60.92;100263.25;5030592;28;45376;-70
2022/09/26 08:27:06;;;;;;;;;5.67;4.67;;;;;19.96;57.64;100279.72;5024796;28;45557;-72
2022/09/26 08:29:33;;;;;;;;;4.33;4.00;;;;;21.10;54.18;100270.94;5015612;28;45546;-70
2022/09/26 08:32:02;;;;;;;;;4.33;3.33;;;;;22.33;52.22;100267.63;5026320;28;46468;-66
2022/09/26 08:34:30;;;;;;;;;8.33;7.67;;;;;23.61;50.23;100260.81;5042015;28;45571;-68
2022/09/26 08:36:56;;;;;;;;;8.00;7.33;;;;;25.33;45.31;100261.69;5028257;28;45520;-68
2022/09/26 08:39:22;;;;;;;;;9.67;7.00;;;;;27.15;41.19;100272.41;5035153;28;45450;-71
2022/09/26 08:42:06;;;;;;;;;8.67;7.00;;;;;27.60;41.30;100285.75;5036766;28;45569;-69
2022/09/26 08:48:35;;;;;;;;;6.33;4.67;;;;;26.32;42.97;100278.53;5017074;28;45415;-75
2022/09/26 08:51:16;;;;;;;;;3.00;2.33;;;;;28.29;39.87;100296.88;5016763;28;45390;-71
2022/09/26 08:53:50;;;;;;;;;5.67;4.00;;;;;28.66;39.74;100278.13;5016030;28;46212;-70
2022/09/26 08:56:21;;;;;;;;;1.00;1.00;;;;;29.16;39.41;100274.72;5016371;28;45487;-68
2022/09/26 08:58:51;;;;;;;;;1.00;0.00;;;;;29.12;35.20;100289.28;5020761;28;45670;-68
2022/09/26 09:01:29;;;;;;;;;3.00;1.00;;;;;29.22;34.76;100292.38;5036527;28;45318;-82
2022/09/26 09:04:15;;;;;;;;;0.00;0.00;;;;;28.81;35.92;100298.88;5034678;28;46993;-68
2022/09/26 09:06:42;;;;;;;;;0.00;0.00;;;;;28.27;36.69;100300.56;5030608;28;45435;-69
2022/09/26 09:09:13;;;;;;;;;0.33;0.33;;;;;27.99;36.81;100301.00;5025355;28;45480;-68
2022/09/26 09:12:00;;;;;;;;;0.00;0.00;;;;;27.53;37.55;100286.00;5023559;28;45502;-69
2022/09/26 09:14:44;;;;;;;;;0.00;0.00;;;;;27.42;38.62;100300.84;5024374;28;46614;-69
2022/09/26 09:17:25;;;;;;;;;0.67;0.67;;;;;27.38;39.18;100292.91;5025263;28;45457;-73
2022/09/26 09:20:10;;;;;;;;;1.00;1.00;;;;;27.70;37.78;100313.91;5025370;28;45385;-69
2022/09/26 09:23:02;;;;;;;;;5.00;2.00;;;;;27.90;38.23;100310.34;5026375;28;45292;-69
2022/09/26 09:25:31;;;;;;;;;1.00;1.00;;;;;27.49;38.02;100265.59;5023241;28;46018;-70
2022/09/26 09:28:12;;;;;;;;;1.00;1.00;;;;;27.25;39.17;100272.94;5031203;28;45533;-70
2022/09/26 09:31:03;;;;;;;;;0.33;0.33;;;;;27.10;38.97;100314.66;5015572;28;45541;-69
2022/09/26 09:33:41;;;;;;;;;1.33;1.33;;;;;26.66;40.11;100317.38;5012914;28;45581;-69
2022/09/26 09:36:13;;;;;;;;;1.00;1.00;;;;;26.26;41.12;100321.59;5015890;28;46034;-70
2022/09/26 09:38:44;;;;;;;;;1.00;1.00;;;;;26.08;41.18;100306.22;5023569;28;45412;-69
2022/09/26 09:41:17;;;;;;;;;2.00;1.00;;;;;26.30;40.63;100301.81;5028601;28;45486;-70
2022/09/26 09:43:56;;;;;;;;;2.67;2.67;;;;;27.30;39.20;100313.84;5035427;28;45529;-69
2022/09/26 09:46:27;;;;;;;;;0.00;0.00;;;;;28.57;36.90;100300.97;5036377;28;46058;-71
2022/09/26 09:49:19;;;;;;;;;1.67;1.67;;;;;29.34;36.42;100308.72;5030273;28;45514;-81
2022/09/26 09:52:18;;;;;;;;;0.67;0.67;;;;;29.72;35.38;100313.97;5020944;28;45521;-69
2022/09/26 09:55:20;;;;;;;;;2.67;1.33;;;;;29.96;32.81;100312.72;5021676;28;45537;-70
2022/09/26 09:58:04;;;;;;;;;1.00;1.00;;;;;29.62;33.37;100311.81;5025507;28;45629;-81
2022/09/26 10:00:40;;;;;;;;;1.00;1.00;;;;;29.02;35.83;100306.81;5025926;28;45563;-80
2022/09/26 10:03:25;;;;;;;;;0.67;0.33;;;;;28.46;36.66;100322.06;5025543;28;45508;-80
2022/09/26 10:05:59;;;;;;;;;0.00;0.00;;;;;27.95;36.18;100327.09;5026498;28;46117;-68
2022/09/26 10:08:41;;;;;;;;;1.00;1.00;;;;;27.99;36.28;100298.31;5026613;28;45482;-69
2022/09/26 10:11:32;;;;;;;;;3.00;3.00;;;;;28.51;35.51;100317.34;5036138;28;45568;-68
2022/09/26 10:14:05;;;;;;;;;1.00;0.33;;;;;28.69;34.54;100305.72;5037013;28;45347;-72
2022/09/26 10:16:32;;;;;;;;;2.33;2.33;;;;;28.73;35.26;100311.84;5033472;28;45466;-72
2022/09/26 10:19:05;;;;;;;;;0.00;0.00;;;;;28.08;36.02;100301.44;5026312;28;46253;-71
2022/09/26 10:21:42;;;;;;;;;0.00;0.00;;;;;28.19;35.69;100297.38;5027123;28;45354;-75
2022/09/26 10:24:24;;;;;;;;;0.67;0.67;;;;;28.54;36.58;100288.53;5027463;28;45456;-68
2022/09/26 10:26:50;;;;;;;;;1.67;1.67;;;;;28.52;36.38;100290.41;5025055;28;45623;-79
2022/09/26 10:29:34;;;;;;;;;1.00;1.00;;;;;28.98;36.46;100289.94;5025209;28;46651;-71
2022/09/26 10:32:00;;;;;;;;;1.00;1.00;;;;;28.75;35.58;100294.66;5025571;28;45546;-68
2022/09/26 10:34:31;;;;;;;;;1.00;1.00;;;;;28.29;36.56;100298.66;5024872;28;45545;-68
2022/09/26 10:37:17;;;;;;;;;1.00;0.00;;;;;27.69;36.97;100296.03;5024197;28;45500;-80
2022/09/26 10:42:36;;;;;;;;;1.00;1.00;;;;;27.03;38.15;100275.63;5028042;28;45544;-72
2022/09/26 10:45:12;;;;;;;;;1.00;0.67;;;;;26.67;39.26;100288.78;5036163;28;45430;-67
2022/09/26 10:47:39;;;;;;;;;1.00;1.00;;;;;26.46;39.76;100290.47;5027453;28;45212;-67
2022/09/26 10:50:17;;;;;;;;;1.00;0.00;;;;;26.19;39.33;100264.72;5027179;28;45383;-67
2022/09/26 10:52:48;;;;;;;;;1.00;1.00;;;;;26.10;40.04;100277.59;5030661;28;45450;-71
2022/09/26 10:55:25;;;;;;;;;1.00;0.67;;;;;26.09;40.55;100283.91;5039586;28;45903;-72
2022/09/26 10:57:54;;;;;;;;;0.00;0.00;;;;;26.11;40.42;100277.53;5039025;28;45346;-67
2022/09/26 11:00:56;;;;;;;;;1.00;0.00;;;;;26.28;40.34;100271.53;5028092;28;46481;-70
2022/09/26 11:03:43;;;;;;;;;0.00;0.00;;;;;26.61;39.55;100278.31;4976756;28;45573;-72
2022/09/26 11:06:28;;;;;;;;;0.00;0.00;;;;;26.71;38.93;100256.41;5026293;28;45497;-67
2022/09/26 11:09:01;;;;;;;;;0.00;0.00;;;;;26.51;37.22;100238.47;5044813;28;45415;-66
2022/09/26 11:11:34;;;;;;;;;1.00;1.00;;;;;26.43;38.48;100253.13;5025854;28;46452;-68
2022/09/26 11:14:08;;;;;;;;;0.00;0.00;;;;;26.48;38.88;100261.81;5050365;28;45576;-67
2022/09/26 11:16:43;;;;;;;;;0.00;0.00;;;;;26.65;38.78;100254.00;5025254;28;45506;-69
2022/09/26 11:19:25;;;;;;;;;0.00;0.00;;;;;26.56;38.12;100259.69;5019082;28;45470;-68
2022/09/26 11:22:07;;;;;;;;;1.33;1.00;;;;;26.69;38.70;100247.56;5033502;28;47010;-72
2022/09/26 11:24:58;;;;;;;;;0.00;0.00;;;;;26.64;38.03;100241.56;5018561;28;45416;-73
2022/09/26 11:27:30;;;;;;;;;0.00;0.00;;;;;26.50;38.20;100250.13;5019269;28;45317;-72
2022/09/26 11:30:07;;;;;;;;;0.00;0.00;;;;;26.39;39.25;100261.25;5034255;28;45379;-72
2022/09/26 11:32:40;;;;;;;;;0.00;0.00;;;;;26.01;39.59;100252.06;5019313;28;45443;-72
2022/09/26 11:35:32;;;;;;;;;0.00;0.00;;;;;25.66;39.94;100248.88;5019382;28;45558;-68
2022/09/26 11:38:19;;;;;;;;;0.00;0.00;;;;;25.52;39.44;100265.44;5015887;28;45390;-68
2022/09/26 11:41:11;;;;;;;;;0.00;0.00;;;;;25.33;39.61;100259.03;5019498;28;45598;-68
2022/09/26 11:43:58;;;;;;;;;0.00;0.00;;;;;25.55;40.87;100269.81;5034325;28;46622;-68
2022/09/26 11:46:46;;;;;;;;;0.67;0.00;;;;;25.82;40.35;100267.91;5017455;28;45382;-68
2022/09/26 11:49:14;;;;;;;;;0.00;0.00;;;;;25.96;40.10;100267.41;5019302;28;45346;-68
2022/09/26 11:51:58;;;;;;;;;0.00;0.00;;;;;26.11;40.48;100257.94;5019616;28;45265;-72
2022/09/26 11:54:34;;;;;;;;;0.00;0.00;;;;;26.21;40.13;100266.50;5018983;28;45468;-73
2022/09/26 11:57:07;;;;;;;;;0.00;0.00;;;;;26.35;40.11;100270.34;5034246;28;45330;-71
2022/09/26 11:59:54;;;;;;;;;0.00;0.00;;;;;26.42;40.16;100268.28;5017875;28;45502;-72
2022/09/26 12:02:57;;;;;;;;;0.00;0.00;;;;;26.36;38.43;100272.09;5019659;28;45368;-69